This is the latest recevied weather packets stored in our database for station/object N5LSN. If no packets are shown the sender has not sent any weather packets the latest 10 day(s).
| Time | Temp. | Humidity | Pressure | Rain* | Wind** | Luminosity | Snow |
|---|---|---|---|---|---|---|---|
| 1777488509 | 18.33° C | 82% | 1016.7 hPa | 0 mm | - | 154 W/m² | - |
| 1777488207 | 18.33° C | 83% | 1016.4 hPa | 0 mm | - | 138 W/m² | - |
| 1777487905 | 18.33° C | 83% | 1016.4 hPa | 0 mm | - | 140 W/m² | - |
| 1777487602 | 18.33° C | 81% | 1016.7 hPa | 0 mm | - | 139 W/m² | - |
| 1777487299 | 18.89° C | 80% | 1016.1 hPa | 0 mm | - | 154 W/m² | - |
| 1777486996 | 18.89° C | 80% | 1016.1 hPa | 0 mm | - | 170 W/m² | - |
| 1777486693 | 19.44° C | 79% | 1015.9 hPa | 0 mm | - | 229 W/m² | - |
| 1777486391 | 18.89° C | 79% | 1015.8 hPa | 0 mm | - | 210 W/m² | - |
| 1777486088 | 18.89° C | 80% | 1015.8 hPa | 0 mm | - | 347 W/m² | - |
| 1777485784 | 18.89° C | 81% | 1015.6 hPa | 0 mm | - | 353 W/m² | - |
| 1777485480 | 19.44° C | 79% | 1016 hPa | 0 mm | - | 500 W/m² | - |
| 1777485176 | 20° C | 78% | 1016.1 hPa | 0 mm | - | 652 W/m² | - |
| 1777484871 | 20° C | 77% | 1016 hPa | 0 mm | - | 639 W/m² | - |
| 1777484569 | 18.89° C | 80% | 1016.2 hPa | 0 mm | - | 656 W/m² | - |
| 1777484266 | 19.44° C | 77% | 1016.3 hPa | 0 mm | - | 537 W/m² | - |
| 1777483962 | 19.44° C | 78% | 1016.3 hPa | 0 mm | - | 595 W/m² | - |
| 1777483659 | 18.89° C | 81% | 1016.5 hPa | 0 mm | - | 683 W/m² | - |
| 1777483354 | 18.89° C | 81% | 1016.7 hPa | 0 mm | - | 618 W/m² | - |
| 1777483050 | 18.89° C | 80% | 1017 hPa | 0 mm | - | 677 W/m² | - |
| 1777482746 | 18.89° C | 80% | 1016.8 hPa | 0 mm | - | 523 W/m² | - |
| 1777482443 | 18.89° C | 80% | 1017.1 hPa | 0 mm | - | 494 W/m² | - |
| 1777482141 | 18.33° C | 82% | 1016.9 hPa | 0 mm | - | 410 W/m² | - |
| 1777481838 | 18.33° C | 82% | 1017.3 hPa | 0 mm | - | 467 W/m² | - |
| 1777481534 | 18.89° C | 80% | 1017.1 hPa | 0 mm | - | 514 W/m² | - |
| 1777481226 | 18.33° C | 83% | 1016.9 hPa | 0 mm | - | 438 W/m² | - |
* Rain latest hour (hover to see other rain measurements)
** Current wind speed in m/s (hover to see current wind gust speed)